Time;durP1;ratioP1;P1;durP2;ratioP2;P2;SDS_P1;SDS_P2;PMS_P1;PMS_P2;Temp;Humidity;BMP_temperature;BMP_pressure;BME280_temperature;BME280_humidity;BME280_pressure;Samples;Min_cycle;Max_cycle;Signal;HPM_P1;HPM_P2
2022/08/29 00:00:32;;;;;;;12.05;3.20;;;14.80;99.90;;;;;;4976459;28;20042;-85
2022/08/29 00:02:59;;;;;;;9.27;2.92;;;14.80;99.90;;;;;;4994602;28;20053;-85
2022/08/29 00:05:28;;;;;;;8.98;2.88;;;14.80;99.90;;;;;;4993535;28;20363;-85
2022/08/29 00:07:56;;;;;;;11.95;3.20;;;14.80;99.90;;;;;;4993939;28;20046;-85
2022/08/29 00:10:21;;;;;;;10.10;2.92;;;14.80;99.90;;;;;;4976040;28;20117;-85
2022/08/29 00:12:47;;;;;;;10.07;3.20;;;14.90;99.90;;;;;;4976094;28;20490;-84
2022/08/29 00:15:14;;;;;;;10.20;3.00;;;15.50;99.90;;;;;;4977322;28;20053;-86
2022/08/29 00:17:41;;;;;;;9.48;3.05;;;14.70;99.90;;;;;;4980129;28;20058;-85
2022/08/29 00:20:10;;;;;;;10.82;2.85;;;14.90;99.90;;;;;;4976156;28;20092;-85
2022/08/29 00:22:36;;;;;;;9.95;2.85;;;14.90;99.90;;;;;;4976438;28;20449;-85
2022/08/29 00:25:04;;;;;;;9.50;3.15;;;14.90;99.90;;;;;;4993687;28;20046;-85
2022/08/29 00:27:31;;;;;;;10.68;3.20;;;15.00;99.90;;;;;;4993181;28;20112;-85
2022/08/29 00:29:56;;;;;;;9.63;2.88;;;15.00;99.90;;;;;;4993923;28;20047;-85
2022/08/29 00:32:22;;;;;;;9.52;3.22;;;15.00;99.90;;;;;;4993529;28;20045;-84
2022/08/29 00:34:47;;;;;;;9.75;3.10;;;15.00;99.90;;;;;;4975785;28;20480;-85
2022/08/29 00:37:13;;;;;;;9.60;3.08;;;15.00;99.90;;;;;;4975929;28;20100;-85
2022/08/29 00:39:39;;;;;;;8.77;2.80;;;15.00;99.90;;;;;;4976255;28;20034;-85
2022/08/29 00:42:05;;;;;;;10.55;2.97;;;15.10;99.90;;;;;;4975081;28;20482;-84
2022/08/29 00:44:31;;;;;;;12.15;3.35;;;15.10;99.90;;;;;;4993099;28;20495;-85
2022/08/29 00:47:02;;;;;;;9.77;3.08;;;15.10;99.90;;;;;;4975793;28;20410;-85
2022/08/29 00:49:32;;;;;;;9.77;2.90;;;15.10;99.90;;;;;;4993479;28;20039;-85
2022/08/29 00:52:11;;;;;;;11.48;3.10;;;15.10;99.90;;;;;;4995637;28;20675;-85
2022/08/29 00:54:39;;;;;;;9.07;2.85;;;15.10;99.90;;;;;;5013638;28;20081;-85
2022/08/29 00:57:05;;;;;;;10.40;3.10;;;15.10;99.90;;;;;;4982863;28;20042;-84
2022/08/29 00:59:35;;;;;;;10.15;3.10;;;15.10;99.90;;;;;;4977227;28;20052;-85
2022/08/29 01:02:03;;;;;;;10.68;3.10;;;15.10;99.90;;;;;;4993668;28;20042;-85
2022/08/29 01:04:29;;;;;;;12.88;3.45;;;15.10;99.90;;;;;;4986994;28;20080;-85
2022/08/29 01:06:56;;;;;;;9.55;3.17;;;15.10;99.90;;;;;;4996312;28;20523;-85
2022/08/29 01:09:24;;;;;;;10.25;3.00;;;15.10;99.90;;;;;;4975684;28;20042;-85
2022/08/29 01:14:35;;;;;;;9.63;2.90;;;15.10;99.90;;;;;;4978165;28;20054;-85
2022/08/29 01:17:02;;;;;;;10.77;3.47;;;15.10;99.90;;;;;;4992606;28;20063;-85
2022/08/29 01:19:45;;;;;;;10.60;3.50;;;15.10;99.90;;;;;;4976152;28;20398;-85
2022/08/29 01:22:35;;;;;;;9.98;3.38;;;15.10;99.90;;;;;;4976962;28;20092;-85
2022/08/29 01:25:04;;;;;;;11.35;3.72;;;15.10;99.90;;;;;;4997753;28;20042;-85
2022/08/29 01:27:34;;;;;;;11.00;3.50;;;15.10;99.90;;;;;;4997275;28;20050;-85
2022/08/29 01:29:59;;;;;;;12.88;3.63;;;15.10;99.90;;;;;;4996485;28;20082;-85
2022/08/29 01:32:25;;;;;;;10.32;2.95;;;15.60;99.90;;;;;;4997012;28;20042;-85
2022/08/29 01:34:52;;;;;;;9.77;3.10;;;15.10;99.90;;;;;;4979701;28;20133;-85
2022/08/29 01:37:18;;;;;;;12.57;3.55;;;15.50;99.90;;;;;;4995950;28;20474;-85
2022/08/29 01:39:44;;;;;;;10.77;3.58;;;15.10;99.90;;;;;;4996902;28;20490;-85
2022/08/29 01:42:17;;;;;;;9.10;3.22;;;15.10;99.90;;;;;;4979411;28;20490;-85
2022/08/29 01:44:51;;;;;;;8.90;3.20;;;15.10;99.90;;;;;;4996177;28;20125;-85
2022/08/29 01:47:18;;;;;;;11.25;3.33;;;15.10;99.90;;;;;;4979278;28;20185;-85
2022/08/29 01:49:44;;;;;;;11.27;3.45;;;15.00;99.90;;;;;;4980081;28;20054;-85
2022/08/29 01:52:11;;;;;;;9.60;3.55;;;15.00;99.90;;;;;;4981013;28;20042;-85
2022/08/29 01:54:39;;;;;;;10.23;3.38;;;15.10;99.90;;;;;;4978918;28;20046;-85
2022/08/29 01:57:04;;;;;;;11.18;3.67;;;15.00;99.90;;;;;;4996935;28;20069;-85
2022/08/29 01:59:31;;;;;;;10.90;3.65;;;15.00;99.90;;;;;;4995914;28;20494;-85
2022/08/29 02:02:27;;;;;;;11.25;3.33;;;15.00;99.90;;;;;;4964111;28;20043;-85
2022/08/29 02:04:56;;;;;;;11.07;3.40;;;15.00;99.90;;;;;;4963234;28;20054;-85
2022/08/29 02:07:23;;;;;;;12.05;3.42;;;15.00;99.90;;;;;;4975472;28;20039;-85
2022/08/29 02:09:50;;;;;;;9.48;3.10;;;15.10;99.90;;;;;;4959649;28;20051;-85
2022/08/29 02:12:17;;;;;;;11.73;3.30;;;15.00;99.90;;;;;;4975921;28;20043;-86
2022/08/29 02:14:43;;;;;;;10.25;3.50;;;15.00;99.90;;;;;;4977189;28;20074;-85
2022/08/29 02:17:08;;;;;;;10.85;3.45;;;15.00;99.90;;;;;;4976860;28;20088;-85
2022/08/29 02:19:35;;;;;;;11.82;3.63;;;15.00;99.90;;;;;;4958487;28;20102;-84
2022/08/29 02:22:01;;;;;;;9.38;3.30;;;15.00;99.90;;;;;;4959147;28;20566;-85
2022/08/29 02:24:30;;;;;;;10.00;3.40;;;15.00;99.90;;;;;;4959564;28;20170;-85
2022/08/29 02:26:57;;;;;;;10.95;3.83;;;15.00;99.90;;;;;;4976110;28;20483;-85
2022/08/29 02:29:24;;;;;;;10.95;3.60;;;15.00;99.90;;;;;;4959954;28;20079;-85
2022/08/29 02:31:50;;;;;;;12.75;3.40;;;15.00;99.90;;;;;;4989314;28;20049;-85
2022/08/29 02:34:16;;;;;;;11.05;3.40;;;14.90;99.90;;;;;;4977076;28;20027;-85
2022/08/29 02:36:42;;;;;;;10.55;3.65;;;15.00;99.90;;;;;;4961262;28;20430;-85
2022/08/29 02:39:08;;;;;;;10.95;3.45;;;14.90;99.90;;;;;;4986027;28;20395;-85
2022/08/29 02:41:34;;;;;;;10.73;3.28;;;15.20;99.90;;;;;;4997063;28;20106;-83
2022/08/29 02:44:01;;;;;;;12.23;3.58;;;14.90;99.90;;;;;;4980097;28;20049;-85
2022/08/29 02:46:26;;;;;;;11.75;3.72;;;14.90;99.90;;;;;;4964213;28;20055;-85
2022/08/29 02:48:52;;;;;;;9.93;3.63;;;14.90;99.90;;;;;;4960020;28;20043;-85
2022/08/29 02:51:23;;;;;;;10.75;3.38;;;14.80;99.90;;;;;;4976166;28;20039;-86
2022/08/29 02:53:49;;;;;;;11.18;3.50;;;14.80;99.90;;;;;;4958576;28;20426;-85
2022/08/29 02:56:16;;;;;;;11.05;3.38;;;14.80;99.90;;;;;;4976217;28;20117;-85
2022/08/29 02:58:42;;;;;;;10.50;3.30;;;14.80;99.90;;;;;;4976333;28;20082;-85
2022/08/29 03:01:11;;;;;;;11.93;3.63;;;14.70;99.90;;;;;;4960899;28;20051;-85
2022/08/29 03:03:37;;;;;;;13.25;3.90;;;14.70;99.90;;;;;;4958626;28;20046;-85
2022/08/29 03:06:03;;;;;;;11.57;4.10;;;14.70;99.90;;;;;;4958744;28;20050;-85
2022/08/29 03:08:29;;;;;;;9.38;3.40;;;14.60;99.90;;;;;;4957417;28;20110;-85
2022/08/29 03:10:55;;;;;;;12.10;3.45;;;14.70;99.90;;;;;;4961669;28;20102;-84
2022/08/29 03:13:21;;;;;;;11.90;3.50;;;14.60;99.90;;;;;;4975884;28;20097;-85
2022/08/29 03:15:47;;;;;;;11.95;3.75;;;14.60;99.90;;;;;;4957576;28;20049;-85
2022/08/29 03:18:13;;;;;;;11.68;3.85;;;14.60;99.90;;;;;;4975198;28;20063;-85
2022/08/29 03:20:43;;;;;;;11.23;3.70;;;14.60;99.90;;;;;;4975972;28;20141;-85
2022/08/29 03:23:10;;;;;;;11.20;3.60;;;14.70;99.90;;;;;;4957629;28;20043;-85
2022/08/29 03:25:36;;;;;;;12.32;3.72;;;14.60;99.90;;;;;;4959026;28;20113;-85
2022/08/29 03:28:02;;;;;;;12.50;3.88;;;14.50;99.90;;;;;;4958614;28;20050;-85
2022/08/29 03:30:28;;;;;;;10.65;3.28;;;14.50;99.90;;;;;;4957405;28;20388;-85
2022/08/29 03:32:55;;;;;;;13.32;3.60;;;14.60;99.90;;;;;;4958119;28;20138;-85
2022/08/29 03:35:21;;;;;;;12.18;3.25;;;14.50;99.90;;;;;;4957828;28;20105;-85
2022/08/29 03:37:49;;;;;;;8.55;3.20;;;14.50;99.90;;;;;;4974788;28;20051;-85
2022/08/29 03:40:17;;;;;;;11.63;3.53;;;14.50;99.90;;;;;;4957636;28;20089;-84
2022/08/29 03:42:46;;;;;;;11.75;3.42;;;14.50;99.90;;;;;;4957313;28;20050;-85
2022/08/29 03:45:14;;;;;;;12.57;3.50;;;14.50;99.90;;;;;;4974420;28;20057;-85
2022/08/29 03:47:41;;;;;;;12.20;4.03;;;14.50;99.90;;;;;;4975321;28;20043;-85
2022/08/29 03:50:07;;;;;;;12.10;3.92;;;14.50;99.90;;;;;;4957189;28;20129;-85
2022/08/29 03:52:32;;;;;;;13.88;3.63;;;14.50;99.90;;;;;;4975340;28;20499;-85
2022/08/29 03:54:59;;;;;;;8.77;3.08;;;14.60;99.90;;;;;;4957708;28;20042;-85
2022/08/29 03:57:25;;;;;;;11.85;3.35;;;14.60;99.90;;;;;;4974050;28;20050;-85
2022/08/29 03:59:51;;;;;;;10.77;3.22;;;14.60;99.90;;;;;;4957820;28;20061;-85
2022/08/29 04:02:17;;;;;;;10.60;4.03;;;14.80;99.90;;;;;;4985740;28;20046;-85
2022/08/29 04:07:47;;;;;;;15.46;3.56;;;14.60;99.90;;;;;;5153079;27;1204450;-85
2022/08/29 04:10:26;;;;;;;8.88;3.60;;;14.70;99.90;;;;;;5193984;27;20046;-85
2022/08/29 04:12:52;;;;;;;12.52;3.85;;;14.70;99.90;;;;;;5178239;27;20043;-85
2022/08/29 04:15:19;;;;;;;10.07;3.30;;;14.70;99.90;;;;;;5155808;27;20043;-85
2022/08/29 04:17:44;;;;;;;13.32;3.60;;;14.70;99.90;;;;;;5190628;27;20038;-85
2022/08/29 04:20:11;;;;;;;9.77;3.38;;;14.80;99.90;;;;;;5183146;27;20091;-85
2022/08/29 04:22:38;;;;;;;11.05;3.50;;;14.80;99.90;;;;;;5154023;27;20149;-85
2022/08/29 04:25:07;;;;;;;9.18;3.00;;;14.80;99.90;;;;;;5172032;27;20054;-85
2022/08/29 04:27:35;;;;;;;11.05;3.10;;;14.70;99.90;;;;;;5172757;27;20501;-85
2022/08/29 04:30:04;;;;;;;10.50;3.53;;;14.90;99.90;;;;;;5172583;27;20577;-85
2022/08/29 04:32:29;;;;;;;8.60;3.30;;;14.70;99.90;;;;;;5153008;27;20038;-85
2022/08/29 04:34:57;;;;;;;10.93;3.10;;;15.40;99.90;;;;;;5153809;27;20042;-85
2022/08/29 04:37:23;;;;;;;9.30;3.45;;;14.70;99.90;;;;;;5153311;27;20158;-85
2022/08/29 04:39:49;;;;;;;10.57;3.03;;;14.70;99.90;;;;;;5152989;27;20133;-85
2022/08/29 04:42:17;;;;;;;11.57;3.40;;;15.30;99.90;;;;;;5153498;27;20405;-85
2022/08/29 04:44:43;;;;;;;10.93;3.40;;;15.40;99.90;;;;;;5153807;27;20375;-85
2022/08/29 04:47:09;;;;;;;11.27;3.20;;;14.70;99.90;;;;;;5171315;27;20127;-85
2022/08/29 04:49:34;;;;;;;10.68;3.35;;;14.70;99.90;;;;;;5153350;27;20134;-85
2022/08/29 04:52:00;;;;;;;10.57;3.40;;;14.60;99.90;;;;;;5172181;27;20549;-85
2022/08/29 04:54:26;;;;;;;9.95;3.72;;;14.60;99.90;;;;;;5152585;27;20578;-85
2022/08/29 04:56:51;;;;;;;10.57;3.60;;;14.60;99.90;;;;;;5157466;27;20043;-85
2022/08/29 04:59:18;;;;;;;10.35;3.08;;;14.60;99.90;;;;;;5154109;27;20485;-85
2022/08/29 05:01:44;;;;;;;14.32;2.90;;;14.60;99.90;;;;;;5154191;27;20046;-85
2022/08/29 05:04:10;;;;;;;10.43;2.97;;;14.50;99.90;;;;;;5174202;27;20042;-85
2022/08/29 05:06:35;;;;;;;11.45;3.10;;;14.40;99.90;;;;;;5172574;27;20065;-85
2022/08/29 05:09:01;;;;;;;10.82;3.17;;;14.40;99.90;;;;;;5171385;27;20042;-85
2022/08/29 05:11:29;;;;;;;11.45;3.17;;;14.30;99.90;;;;;;5152710;27;20362;-84
2022/08/29 05:13:55;;;;;;;11.25;3.17;;;14.20;99.90;;;;;;5152738;27;20042;-85
2022/08/29 05:16:21;;;;;;;14.02;3.47;;;14.20;99.90;;;;;;5152092;27;20034;-85
2022/08/29 05:18:46;;;;;;;10.93;3.30;;;14.20;99.90;;;;;;5139693;27;20397;-85
2022/08/29 05:21:22;;;;;;;11.27;3.70;;;14.20;99.90;;;;;;5138057;27;20398;-85
2022/08/29 05:23:47;;;;;;;12.00;3.45;;;14.20;99.90;;;;;;5157437;27;20035;-85
2022/08/29 05:26:13;;;;;;;10.10;3.20;;;14.20;99.90;;;;;;5157299;27;20103;-85
2022/08/29 05:28:38;;;;;;;10.48;3.15;;;14.20;99.90;;;;;;5156486;27;20034;-85
2022/08/29 05:31:04;;;;;;;8.18;2.83;;;14.20;99.90;;;;;;5138520;27;20039;-85
2022/08/29 05:33:30;;;;;;;10.38;3.08;;;14.20;99.90;;;;;;5156715;27;20114;-85
2022/08/29 05:35:56;;;;;;;8.48;2.92;;;14.30;99.90;;;;;;5156455;27;20039;-85
2022/08/29 05:38:22;;;;;;;11.82;3.22;;;14.30;99.90;;;;;;5138304;27;20394;-85
2022/08/29 05:40:48;;;;;;;10.40;3.25;;;14.40;99.90;;;;;;5138756;27;20027;-85
2022/08/29 05:43:13;;;;;;;9.55;3.60;;;14.40;99.90;;;;;;5138681;27;20477;-91
2022/08/29 05:45:41;;;;;;;10.27;3.28;;;14.60;99.90;;;;;;5141572;27;20049;-94
2022/08/29 05:48:08;;;;;;;11.02;3.30;;;14.70;99.90;;;;;;5146007;27;20107;-92
2022/08/29 05:50:38;;;;;;;10.07;3.40;;;15.40;99.90;;;;;;5140268;27;20058;-89
2022/08/29 05:53:04;;;;;;;12.85;3.88;;;15.50;99.90;;;;;;5159008;27;20049;-87
2022/08/29 05:55:29;;;;;;;12.20;3.85;;;15.00;99.90;;;;;;5148693;27;20054;-89
2022/08/29 05:57:55;;;;;;;11.68;3.80;;;15.00;99.90;;;;;;5143485;27;20043;-87
2022/08/29 06:00:35;;;;;;;11.57;3.30;;;15.30;99.90;;;;;;5156762;27;20042;-89
2022/08/29 06:03:01;;;;;;;11.77;3.75;;;15.20;99.90;;;;;;5138135;27;20383;-88
2022/08/29 06:05:27;;;;;;;11.50;4.15;;;16.00;99.90;;;;;;5137228;27;20037;-88
2022/08/29 06:07:52;;;;;;;10.57;3.70;;;15.40;99.90;;;;;;5156319;27;20095;-90
2022/08/29 06:10:38;;;;;;;13.68;4.10;;;16.20;99.90;;;;;;5155686;27;20091;-89
2022/08/29 06:13:03;;;;;;;11.52;4.05;;;15.50;99.90;;;;;;5138621;27;20473;-93
2022/08/29 06:15:29;;;;;;;11.45;4.03;;;16.50;99.90;;;;;;5138244;27;20041;-88
2022/08/29 06:17:55;;;;;;;13.82;3.78;;;16.20;99.90;;;;;;5155970;27;20037;-87
2022/08/29 06:20:21;;;;;;;14.98;4.20;;;15.70;99.90;;;;;;5137776;27;20041;-87
2022/08/29 06:22:46;;;;;;;15.52;4.85;;;16.30;99.90;;;;;;5156204;27;20400;-87
2022/08/29 06:25:12;;;;;;;12.60;4.00;;;15.90;99.90;;;;;;5155683;27;20039;-87
2022/08/29 06:27:41;;;;;;;10.75;3.70;;;15.90;99.90;;;;;;5137456;27;20070;-87
2022/08/29 06:30:07;;;;;;;14.95;4.55;;;16.50;99.90;;;;;;5136739;27;20050;-87
2022/08/29 06:32:32;;;;;;;11.43;3.67;;;16.00;99.90;;;;;;5155311;27;20393;-87
2022/08/29 06:34:58;;;;;;;12.45;3.50;;;16.10;99.90;;;;;;5143434;27;20037;-87
2022/08/29 06:37:24;;;;;;;11.02;3.65;;;16.20;99.90;;;;;;5138825;27;20154;-87
2022/08/29 06:39:55;;;;;;;11.57;3.40;;;16.30;99.90;;;;;;5155070;27;20062;-86
2022/08/29 06:42:23;;;;;;;11.10;3.30;;;16.20;99.90;;;;;;5136896;27;20039;-86
2022/08/29 06:44:49;;;;;;;11.55;3.33;;;17.00;99.90;;;;;;5137638;27;20046;-87
2022/08/29 06:47:15;;;;;;;10.10;3.35;;;16.40;99.90;;;;;;5154837;27;20049;-87
2022/08/29 06:49:41;;;;;;;12.18;3.70;;;16.50;99.90;;;;;;5134338;27;20046;-86
2022/08/29 06:52:06;;;;;;;13.15;3.50;;;16.50;99.90;;;;;;5135073;27;20054;-87
2022/08/29 06:54:32;;;;;;;11.27;3.55;;;17.30;99.90;;;;;;5134134;27;20047;-87
2022/08/29 06:56:58;;;;;;;10.13;3.60;;;16.50;99.90;;;;;;5116568;27;20436;-86
2022/08/29 06:59:24;;;;;;;10.55;3.30;;;16.50;99.90;;;;;;5138818;27;20046;-86
2022/08/29 07:01:50;;;;;;;9.70;3.30;;;16.90;99.90;;;;;;5134310;27;20051;-87
2022/08/29 07:04:16;;;;;;;10.02;3.22;;;16.70;99.90;;;;;;5115816;27;20126;-87
2022/08/29 07:06:42;;;;;;;11.95;3.42;;;16.60;99.90;;;;;;5115068;27;20406;-86
2022/08/29 07:09:08;;;;;;;11.38;3.55;;;16.60;99.90;;;;;;5134376;27;20039;-87
2022/08/29 07:11:37;;;;;;;15.20;3.58;;;17.00;99.90;;;;;;5134503;27;20397;-87
2022/08/29 07:14:03;;;;;;;13.23;3.17;;;16.70;99.90;;;;;;5115322;27;20504;-89
2022/08/29 07:16:31;;;;;;;12.02;3.63;;;17.30;99.90;;;;;;5115933;27;20131;-89
2022/08/29 07:18:57;;;;;;;11.88;4.07;;;16.60;99.90;;;;;;5116349;27;20054;-89
2022/08/29 07:21:24;;;;;;;14.02;3.75;;;16.70;99.90;;;;;;5115434;27;20545;-90
2022/08/29 07:23:51;;;;;;;10.90;3.50;;;16.80;99.90;;;;;;5140038;27;20035;-90
2022/08/29 07:26:24;;;;;;;12.13;3.72;;;17.30;99.90;;;;;;5135882;27;20047;-90
2022/08/29 07:28:52;;;;;;;12.52;3.20;;;17.10;99.90;;;;;;5116015;27;20062;-89
2022/08/29 07:31:18;;;;;;;9.48;3.55;;;17.60;99.90;;;;;;5135561;27;20039;-89
2022/08/29 07:33:44;;;;;;;14.85;3.80;;;17.30;99.90;;;;;;5187760;27;20045;-88
2022/08/29 07:36:09;;;;;;;11.85;3.75;;;18.00;99.90;;;;;;5161668;27;20471;-88
2022/08/29 07:38:36;;;;;;;11.40;3.33;;;17.80;99.90;;;;;;5155045;27;20039;-88
2022/08/29 07:41:08;;;;;;;12.57;3.33;;;17.70;99.90;;;;;;5136552;27;20063;-88
2022/08/29 07:43:34;;;;;;;11.77;3.10;;;17.90;99.90;;;;;;5135681;27;20476;-88
2022/08/29 07:46:09;;;;;;;9.90;3.10;;;17.90;99.90;;;;;;5136458;27;20035;-89
2022/08/29 07:48:36;;;;;;;9.65;3.05;;;18.00;99.90;;;;;;5136253;27;20046;-89
2022/08/29 07:51:09;;;;;;;11.05;3.30;;;18.70;99.90;;;;;;5154173;27;20038;-88
2022/08/29 07:53:35;;;;;;;10.75;3.47;;;18.10;99.90;;;;;;5137117;27;20050;-90
2022/08/29 07:56:10;;;;;;;10.40;3.08;;;18.60;99.90;;;;;;5135693;27;20038;-87
2022/08/29 07:58:36;;;;;;;11.85;3.28;;;18.30;99.90;;;;;;5136079;27;20078;-91
2022/08/29 08:01:05;;;;;;;13.77;3.28;;;18.30;99.90;;;;;;5127869;27;20091;-90
2022/08/29 08:03:35;;;;;;;10.98;3.28;;;18.40;99.90;;;;;;5120803;27;20039;-90
2022/08/29 08:06:02;;;;;;;10.90;2.95;;;18.40;99.90;;;;;;5115254;28;20076;-89
2022/08/29 08:08:28;;;;;;;11.45;3.33;;;19.20;99.90;;;;;;5144652;27;20039;-89
2022/08/29 08:10:54;;;;;;;8.85;2.90;;;19.30;99.90;;;;;;5121137;28;20103;-90
2022/08/29 08:13:20;;;;;;;10.43;3.28;;;18.40;99.90;;;;;;5133917;28;20043;-91
2022/08/29 08:15:48;;;;;;;14.65;3.45;;;18.50;99.90;;;;;;5133921;28;20044;-92
2022/08/29 08:18:24;;;;;;;11.35;3.17;;;18.90;99.90;;;;;;5089538;28;20079;-93
2022/08/29 08:20:49;;;;;;;10.05;3.58;;;19.60;99.90;;;;;;5071542;28;20522;-92
2022/08/29 08:23:16;;;;;;;11.45;3.50;;;18.70;99.90;;;;;;5076635;28;20048;-91
2022/08/29 08:25:43;;;;;;;13.15;3.53;;;19.20;99.90;;;;;;5070241;28;20081;-87
2022/08/29 08:28:11;;;;;;;10.25;3.25;;;18.70;99.90;;;;;;5084077;28;20535;-89
2022/08/29 08:30:37;;;;;;;12.57;3.40;;;19.00;99.90;;;;;;5069197;28;20040;-89
2022/08/29 08:33:03;;;;;;;12.13;3.10;;;19.20;99.90;;;;;;5068788;28;20144;-89
2022/08/29 08:35:46;;;;;;;11.38;3.67;;;19.30;99.90;;;;;;5072243;28;20044;-88
2022/08/29 08:38:12;;;;;;;12.48;3.35;;;19.40;99.90;;;;;;5082952;28;20060;-92
2022/08/29 08:40:45;;;;;;;14.10;3.53;;;20.10;99.90;;;;;;5071519;28;20041;-91
2022/08/29 08:43:15;;;;;;;12.60;3.55;;;19.80;99.90;;;;;;5054099;28;20058;-91
2022/08/29 08:45:42;;;;;;;12.88;3.20;;;19.60;99.90;;;;;;5080976;28;20056;-91
2022/08/29 08:48:19;;;;;;;10.38;3.40;;;19.60;99.90;;;;;;5075789;28;20040;-90
2022/08/29 08:51:04;;;;;;;12.10;3.47;;;19.60;99.90;;;;;;5116462;28;20447;-91
2022/08/29 08:53:39;;;;;;;12.13;3.08;;;19.70;99.90;;;;;;5141104;27;20047;-90
2022/08/29 08:56:12;;;;;;;11.50;3.60;;;19.80;99.90;;;;;;5129033;27;20090;-92
2022/08/29 08:58:47;;;;;;;12.27;4.00;;;19.90;99.90;;;;;;5138137;27;20039;-82
2022/08/29 09:01:19;;;;;;;11.38;3.70;;;20.10;99.90;;;;;;5123514;27;20055;-89
2022/08/29 09:04:11;;;;;;;13.57;3.38;;;20.40;99.90;;;;;;5139917;27;20023;-90
2022/08/29 09:06:54;;;;;;;13.73;3.42;;;21.10;99.90;;;;;;5139019;27;20066;-94
2022/08/29 09:09:36;;;;;;;14.25;4.00;;;21.10;99.90;;;;;;5125998;27;20039;-88
2022/08/29 09:12:09;;;;;;;11.38;3.28;;;20.90;99.90;;;;;;5150462;27;20046;-86
2022/08/29 09:15:02;;;;;;;15.52;5.38;;;21.40;99.90;;;;;;5122718;27;20047;-84
2022/08/29 09:17:40;;;;;;;10.20;4.07;;;21.00;99.90;;;;;;5137058;27;20047;-85
2022/08/29 09:20:13;;;;;;;14.65;3.72;;;21.10;99.90;;;;;;5137579;27;20054;-85
2022/08/29 09:22:42;;;;;;;12.73;3.70;;;21.10;99.90;;;;;;5118280;27;20497;-86
2022/08/29 09:25:11;;;;;;;14.43;3.72;;;21.00;99.90;;;;;;5118546;27;20122;-86
2022/08/29 09:27:37;;;;;;;11.98;3.45;;;21.00;99.90;;;;;;5117528;27;20123;-92
2022/08/29 09:30:16;;;;;;;13.40;3.50;;;21.50;99.90;;;;;;5137304;27;20090;-90
2022/08/29 09:33:10;;;;;;;11.75;3.65;;;20.80;99.90;;;;;;5137231;27;20050;-90
2022/08/29 09:35:41;;;;;;;;;;;20.70;99.90;;;;;;5137002;27;20050;-89
2022/08/29 09:38:16;;;;;;;11.32;3.97;;;20.80;99.90;;;;;;5119526;27;20422;-93
2022/08/29 09:40:41;;;;;;;13.55;3.55;;;20.90;99.90;;;;;;5130829;27;20035;-93
2022/08/29 09:43:07;;;;;;;11.10;3.45;;;21.60;99.90;;;;;;5149570;27;20352;-87
2022/08/29 09:45:33;;;;;;;14.10;3.90;;;20.90;99.90;;;;;;5118028;27;20509;-87
2022/08/29 09:48:13;;;;;;;10.90;3.53;;;21.00;99.90;;;;;;5119203;27;20051;-85
2022/08/29 09:50:39;;;;;;;10.63;3.10;;;20.90;99.90;;;;;;5135159;27;20050;-85
2022/08/29 09:53:05;;;;;;;11.27;3.42;;;20.90;99.90;;;;;;5117756;27;20103;-86
2022/08/29 09:55:33;;;;;;;11.20;3.88;;;20.90;99.90;;;;;;5116944;27;20047;-85
2022/08/29 09:58:03;;;;;;;11.85;3.35;;;20.80;99.90;;;;;;5117949;27;20465;-85
2022/08/29 10:00:37;;;;;;;10.90;3.50;;;21.00;99.90;;;;;;5117490;27;20163;-88
2022/08/29 10:03:05;;;;;;;11.57;3.50;;;21.00;99.90;;;;;;5135720;27;20043;-89
2022/08/29 10:05:39;;;;;;;11.77;3.58;;;21.20;99.90;;;;;;5117304;27;20585;-87
2022/08/29 10:08:06;;;;;;;11.77;3.72;;;21.10;99.90;;;;;;5117613;27;20111;-87
2022/08/29 10:10:35;;;;;;;11.40;3.33;;;21.80;99.90;;;;;;5116788;27;20100;-87
2022/08/29 10:13:23;;;;;;;10.40;3.20;;;21.40;99.90;;;;;;5117567;27;20066;-87
2022/08/29 10:16:09;;;;;;;10.30;3.45;;;21.50;99.90;;;;;;5118005;27;20122;-87
2022/08/29 10:18:50;;;;;;;11.68;3.60;;;21.60;99.90;;;;;;5116553;27;20069;-87
2022/08/29 10:21:36;;;;;;;13.52;3.63;;;21.80;99.90;;;;;;5117096;27;20035;-87
2022/08/29 10:24:20;;;;;;;13.25;3.58;;;22.20;99.90;;;;;;5117470;27;20490;-89
2022/08/29 10:27:11;;;;;;;11.98;3.60;;;22.40;99.90;;;;;;5135974;27;20043;-90
2022/08/29 10:30:05;;;;;;;13.75;3.10;;;22.70;99.90;;;;;;5087649;27;20055;-89
2022/08/29 10:32:42;;;;;;;11.55;3.35;;;23.10;99.90;;;;;;5116218;27;20047;-89
2022/08/29 10:35:33;;;;;;;9.32;3.53;;;23.40;99.90;;;;;;5117344;27;20099;-83
2022/08/29 10:38:22;;;;;;;11.70;3.58;;;23.50;99.90;;;;;;5119375;27;20043;-88
2022/08/29 10:40:54;;;;;;;9.68;3.30;;;23.40;99.90;;;;;;5136951;27;20099;-89
2022/08/29 10:43:51;;;;;;;12.32;3.10;;;23.80;99.90;;;;;;5116996;27;20053;-87
2022/08/29 10:46:28;;;;;;;9.98;3.50;;;24.30;99.90;;;;;;5119656;27;20043;-89
2022/08/29 10:49:36;;;;;;;10.45;2.90;;;25.00;99.90;;;;;;5138000;27;20123;-89
2022/08/29 10:52:19;;;;;;;13.02;3.28;;;25.20;99.90;;;;;;5117340;27;20125;-88
2022/08/29 10:55:26;;;;;;;9.65;3.17;;;25.10;99.90;;;;;;5116708;27;20039;-91
2022/08/29 10:57:58;;;;;;;10.90;3.40;;;24.70;99.90;;;;;;5135279;27;20047;-89
2022/08/29 11:00:51;;;;;;;10.57;3.58;;;24.30;99.90;;;;;;5115340;27;20049;-87
2022/08/29 11:03:45;;;;;;;8.75;3.58;;;23.80;99.90;;;;;;5134505;27;20403;-90
2022/08/29 11:06:20;;;;;;;11.32;3.38;;;23.60;99.90;;;;;;5133916;27;20055;-87
2022/08/29 11:09:02;;;;;;;12.20;3.22;;;23.50;99.90;;;;;;5134567;27;20497;-87
2022/08/29 11:11:41;;;;;;;11.77;3.50;;;23.50;99.90;;;;;;5116516;27;20079;-88
2022/08/29 11:14:22;;;;;;;10.30;3.33;;;23.60;99.90;;;;;;5127678;27;20038;-87
2022/08/29 11:16:51;;;;;;;12.73;3.63;;;23.60;99.90;;;;;;5120058;27;20054;-87
2022/08/29 11:19:44;;;;;;;12.70;3.63;;;23.80;99.90;;;;;;5116070;27;20057;-87
2022/08/29 11:22:21;;;;;;;11.90;3.45;;;23.40;99.90;;;;;;5134304;27;20054;-87
2022/08/29 11:25:06;;;;;;;11.60;3.70;;;23.60;99.90;;;;;;5134474;27;20047;-88
2022/08/29 11:28:06;;;;;;;13.35;4.07;;;23.60;99.90;;;;;;5115235;27;20047;-87
2022/08/29 11:30:50;;;;;;;10.80;3.30;;;23.70;99.90;;;;;;5116371;27;20092;-88
2022/08/29 11:33:36;;;;;;;12.90;3.55;;;23.60;99.90;;;;;;5116248;27;20043;-87
2022/08/29 11:36:17;;;;;;;12.15;3.30;;;24.10;99.90;;;;;;5133791;27;20047;-87
2022/08/29 11:39:14;;;;;;;12.50;3.72;;;23.70;99.90;;;;;;5115624;27;20043;-87
2022/08/29 11:41:46;;;;;;;11.18;3.50;;;24.00;99.90;;;;;;5116590;27;20050;-87
2022/08/29 11:44:26;;;;;;;10.98;3.40;;;24.20;99.90;;;;;;5116069;27;20054;-87
2022/08/29 11:46:53;;;;;;;10.82;3.58;;;24.40;99.90;;;;;;5115541;27;20043;-88
2022/08/29 11:49:25;;;;;;;12.98;3.50;;;24.50;99.90;;;;;;5116538;27;20043;-88
2022/08/29 11:51:55;;;;;;;10.98;3.67;;;24.20;99.90;;;;;;5147445;27;20034;-87
2022/08/29 11:54:41;;;;;;;11.82;3.60;;;24.20;99.90;;;;;;5143974;27;20039;-87
2022/08/29 11:57:09;;;;;;;8.77;3.40;;;24.30;99.90;;;;;;5153770;27;20046;-87
2022/08/29 11:59:44;;;;;;;9.85;3.17;;;24.20;99.90;;;;;;5154585;27;20045;-88
2022/08/29 12:02:30;;;;;;;10.18;3.50;;;24.30;99.90;;;;;;5135354;27;20039;-88
2022/08/29 12:05:19;;;;;;;11.48;3.83;;;24.30;99.90;;;;;;5154474;27;20046;-87
2022/08/29 12:07:53;;;;;;;9.43;3.58;;;24.60;99.90;;;;;;5135914;27;20058;-87
2022/08/29 12:10:18;;;;;;;9.18;3.22;;;24.40;99.90;;;;;;5135202;27;20030;-87
2022/08/29 12:12:49;;;;;;;9.60;3.60;;;24.40;99.90;;;;;;5136649;27;20442;-87
2022/08/29 12:15:36;;;;;;;10.82;3.63;;;24.60;99.90;;;;;;5156488;27;20099;-87
2022/08/29 12:18:29;;;;;;;10.38;3.22;;;24.40;99.90;;;;;;5164878;27;20054;-87
2022/08/29 12:20:55;;;;;;;11.50;3.35;;;24.10;99.90;;;;;;5155070;27;20034;-86
2022/08/29 12:23:24;;;;;;;16.13;3.90;;;23.90;99.90;;;;;;5137841;27;20525;-89
2022/08/29 12:25:52;;;;;;;11.63;3.40;;;23.80;99.90;;;;;;5143216;27;20042;-85
2022/08/29 12:28:22;;;;;;;11.68;3.50;;;24.20;99.90;;;;;;5156085;27;20405;-86
2022/08/29 12:30:57;;;;;;;10.60;3.33;;;23.80;99.90;;;;;;5157596;27;20070;-86
2022/08/29 12:33:53;;;;;;;11.50;3.38;;;23.40;99.90;;;;;;5162352;27;20052;-87
2022/08/29 12:36:42;;;;;;;11.48;3.15;;;23.50;99.90;;;;;;5158188;27;20601;-86
2022/08/29 12:39:44;;;;;;;10.05;3.63;;;23.60;99.90;;;;;;5157570;27;20490;-85
2022/08/29 12:42:49;;;;;;;10.70;3.50;;;23.60;99.90;;;;;;5142674;27;20078;-84
2022/08/29 12:45:19;;;;;;;14.50;3.40;;;23.50;99.90;;;;;;5138717;27;20514;-85
2022/08/29 12:47:49;;;;;;;11.43;3.13;;;23.40;99.90;;;;;;5158275;27;20482;-84
2022/08/29 12:50:23;;;;;;;12.85;3.60;;;23.70;99.90;;;;;;5139672;27;20142;-84
2022/08/29 12:53:02;;;;;;;10.60;3.75;;;23.60;99.90;;;;;;5157313;27;20042;-86
2022/08/29 12:55:50;;;;;;;13.40;3.58;;;23.80;99.90;;;;;;5158253;27;20378;-85
2022/08/29 12:58:29;;;;;;;12.13;4.03;;;23.70;99.90;;;;;;5138929;27;20050;-85
2022/08/29 13:00:55;;;;;;;10.32;3.53;;;23.70;99.90;;;;;;5139601;27;20546;-84
2022/08/29 13:03:21;;;;;;;11.65;3.30;;;23.60;99.90;;;;;;5139072;27;20043;-84